sensor_id;sensor_type;location;lat;lon;timestamp;P1;durP1;ratioP1;P2;durP2;ratioP2
25327;SDS011;13279;51.300;12.394;2023-07-16T00:02:11;9.57;;;4.27;;
25327;SDS011;13279;51.300;12.394;2023-07-16T00:04:38;11.10;;;4.23;;
25327;SDS011;13279;51.300;12.394;2023-07-16T00:07:06;6.53;;;4.07;;
25327;SDS011;13279;51.300;12.394;2023-07-16T00:09:34;7.70;;;3.67;;
25327;SDS011;13279;51.300;12.394;2023-07-16T00:12:02;4.93;;;3.53;;
25327;SDS011;13279;51.300;12.394;2023-07-16T00:14:31;7.47;;;3.87;;
25327;SDS011;13279;51.300;12.394;2023-07-16T00:16:59;6.30;;;3.40;;
25327;SDS011;13279;51.300;12.394;2023-07-16T00:19:26;8.67;;;4.43;;
25327;SDS011;13279;51.300;12.394;2023-07-16T00:21:53;5.53;;;4.10;;
25327;SDS011;13279;51.300;12.394;2023-07-16T00:24:21;8.03;;;4.10;;
25327;SDS011;13279;51.300;12.394;2023-07-16T00:26:48;8.63;;;4.10;;
25327;SDS011;13279;51.300;12.394;2023-07-16T00:29:15;9.17;;;4.20;;
25327;SDS011;13279;51.300;12.394;2023-07-16T00:31:45;5.47;;;4.00;;
25327;SDS011;13279;51.300;12.394;2023-07-16T00:34:12;6.43;;;4.90;;
25327;SDS011;13279;51.300;12.394;2023-07-16T00:36:39;9.90;;;5.13;;
25327;SDS011;13279;51.300;12.394;2023-07-16T00:39:07;7.03;;;4.00;;
25327;SDS011;13279;51.300;12.394;2023-07-16T00:41:35;5.60;;;3.50;;
25327;SDS011;13279;51.300;12.394;2023-07-16T00:44:02;5.83;;;3.77;;
25327;SDS011;13279;51.300;12.394;2023-07-16T00:46:30;8.17;;;4.17;;
25327;SDS011;13279;51.300;12.394;2023-07-16T00:48:59;6.77;;;4.13;;
25327;SDS011;13279;51.300;12.394;2023-07-16T00:51:27;7.60;;;4.40;;
25327;SDS011;13279;51.300;12.394;2023-07-16T00:53:55;5.43;;;4.17;;
25327;SDS011;13279;51.300;12.394;2023-07-16T00:56:23;7.53;;;4.20;;
25327;SDS011;13279;51.300;12.394;2023-07-16T00:58:51;9.43;;;4.73;;
25327;SDS011;13279;51.300;12.394;2023-07-16T01:01:20;10.60;;;4.10;;
25327;SDS011;13279;51.300;12.394;2023-07-16T01:03:47;6.37;;;4.97;;
25327;SDS011;13279;51.300;12.394;2023-07-16T01:06:18;10.27;;;4.03;;
25327;SDS011;13279;51.300;12.394;2023-07-16T01:08:54;6.47;;;4.30;;
25327;SDS011;13279;51.300;12.394;2023-07-16T01:11:27;5.93;;;3.73;;
25327;SDS011;13279;51.300;12.394;2023-07-16T01:13:55;8.30;;;4.40;;
25327;SDS011;13279;51.300;12.394;2023-07-16T01:16:24;9.57;;;5.03;;
25327;SDS011;13279;51.300;12.394;2023-07-16T01:18:51;9.40;;;4.87;;
25327;SDS011;13279;51.300;12.394;2023-07-16T01:21:21;11.30;;;4.53;;
25327;SDS011;13279;51.300;12.394;2023-07-16T01:24:00;8.60;;;4.20;;
25327;SDS011;13279;51.300;12.394;2023-07-16T01:26:47;8.60;;;4.33;;
25327;SDS011;13279;51.300;12.394;2023-07-16T01:29:29;8.23;;;4.37;;
25327;SDS011;13279;51.300;12.394;2023-07-16T01:32:02;8.70;;;4.03;;
25327;SDS011;13279;51.300;12.394;2023-07-16T01:34:34;13.57;;;4.93;;
25327;SDS011;13279;51.300;12.394;2023-07-16T01:37:03;8.00;;;4.00;;
25327;SDS011;13279;51.300;12.394;2023-07-16T01:39:31;4.87;;;4.20;;
25327;SDS011;13279;51.300;12.394;2023-07-16T01:41:59;7.73;;;4.17;;
25327;SDS011;13279;51.300;12.394;2023-07-16T01:44:26;5.37;;;3.67;;
25327;SDS011;13279;51.300;12.394;2023-07-16T01:47:03;5.30;;;3.83;;
25327;SDS011;13279;51.300;12.394;2023-07-16T01:49:36;9.20;;;4.33;;
25327;SDS011;13279;51.300;12.394;2023-07-16T01:52:04;4.93;;;3.50;;
25327;SDS011;13279;51.300;12.394;2023-07-16T01:54:33;4.73;;;3.57;;
25327;SDS011;13279;51.300;12.394;2023-07-16T01:57:00;7.97;;;4.27;;
25327;SDS011;13279;51.300;12.394;2023-07-16T01:59:28;6.50;;;4.10;;
25327;SDS011;13279;51.300;12.394;2023-07-16T02:01:55;6.50;;;3.50;;
25327;SDS011;13279;51.300;12.394;2023-07-16T02:04:24;6.30;;;3.57;;
25327;SDS011;13279;51.300;12.394;2023-07-16T02:06:52;4.83;;;3.77;;
25327;SDS011;13279;51.300;12.394;2023-07-16T02:09:20;13.37;;;4.10;;
25327;SDS011;13279;51.300;12.394;2023-07-16T02:11:47;6.70;;;4.90;;
25327;SDS011;13279;51.300;12.394;2023-07-16T02:14:15;7.03;;;4.90;;
25327;SDS011;13279;51.300;12.394;2023-07-16T02:16:43;6.70;;;5.97;;
25327;SDS011;13279;51.300;12.394;2023-07-16T02:19:11;7.77;;;5.93;;
25327;SDS011;13279;51.300;12.394;2023-07-16T02:21:40;12.97;;;6.30;;
25327;SDS011;13279;51.300;12.394;2023-07-16T02:24:08;7.10;;;5.83;;
25327;SDS011;13279;51.300;12.394;2023-07-16T02:26:35;8.03;;;6.10;;
25327;SDS011;13279;51.300;12.394;2023-07-16T02:29:02;7.73;;;5.17;;
25327;SDS011;13279;51.300;12.394;2023-07-16T02:31:34;5.70;;;4.77;;
25327;SDS011;13279;51.300;12.394;2023-07-16T02:34:01;8.13;;;4.77;;
25327;SDS011;13279;51.300;12.394;2023-07-16T02:36:32;6.53;;;4.87;;
25327;SDS011;13279;51.300;12.394;2023-07-16T02:39:01;6.37;;;4.70;;
25327;SDS011;13279;51.300;12.394;2023-07-16T02:41:29;8.03;;;4.07;;
25327;SDS011;13279;51.300;12.394;2023-07-16T02:43:59;5.80;;;4.47;;
25327;SDS011;13279;51.300;12.394;2023-07-16T02:46:28;5.43;;;4.90;;
25327;SDS011;13279;51.300;12.394;2023-07-16T02:48:55;5.67;;;4.33;;
25327;SDS011;13279;51.300;12.394;2023-07-16T02:51:23;5.17;;;4.20;;
25327;SDS011;13279;51.300;12.394;2023-07-16T02:53:51;5.37;;;4.30;;
25327;SDS011;13279;51.300;12.394;2023-07-16T02:56:20;5.60;;;3.67;;
25327;SDS011;13279;51.300;12.394;2023-07-16T02:58:49;6.07;;;3.73;;
25327;SDS011;13279;51.300;12.394;2023-07-16T03:01:17;5.77;;;4.07;;
25327;SDS011;13279;51.300;12.394;2023-07-16T03:03:44;5.73;;;4.63;;
25327;SDS011;13279;51.300;12.394;2023-07-16T03:06:12;4.40;;;4.03;;
25327;SDS011;13279;51.300;12.394;2023-07-16T03:08:40;7.10;;;4.30;;
25327;SDS011;13279;51.300;12.394;2023-07-16T03:11:08;6.37;;;3.80;;
25327;SDS011;13279;51.300;12.394;2023-07-16T03:13:40;8.33;;;4.17;;
25327;SDS011;13279;51.300;12.394;2023-07-16T03:16:08;4.37;;;3.97;;
25327;SDS011;13279;51.300;12.394;2023-07-16T03:18:36;5.77;;;4.00;;
25327;SDS011;13279;51.300;12.394;2023-07-16T03:21:04;7.00;;;4.00;;
25327;SDS011;13279;51.300;12.394;2023-07-16T03:23:34;6.47;;;3.87;;
25327;SDS011;13279;51.300;12.394;2023-07-16T03:26:01;4.70;;;3.97;;
25327;SDS011;13279;51.300;12.394;2023-07-16T03:28:29;6.60;;;3.57;;
25327;SDS011;13279;51.300;12.394;2023-07-16T03:31:01;5.07;;;3.97;;
25327;SDS011;13279;51.300;12.394;2023-07-16T03:33:29;5.70;;;3.70;;
25327;SDS011;13279;51.300;12.394;2023-07-16T03:35:57;4.90;;;3.30;;
25327;SDS011;13279;51.300;12.394;2023-07-16T03:38:24;7.27;;;4.03;;
25327;SDS011;13279;51.300;12.394;2023-07-16T03:40:52;6.43;;;3.80;;
25327;SDS011;13279;51.300;12.394;2023-07-16T03:43:20;5.10;;;3.73;;
25327;SDS011;13279;51.300;12.394;2023-07-16T03:45:49;4.67;;;3.60;;
25327;SDS011;13279;51.300;12.394;2023-07-16T03:48:18;3.80;;;3.43;;
25327;SDS011;13279;51.300;12.394;2023-07-16T03:50:46;6.13;;;3.20;;
25327;SDS011;13279;51.300;12.394;2023-07-16T03:53:13;4.63;;;3.53;;
25327;SDS011;13279;51.300;12.394;2023-07-16T03:55:41;4.43;;;3.80;;
25327;SDS011;13279;51.300;12.394;2023-07-16T03:58:09;3.50;;;3.20;;
25327;SDS011;13279;51.300;12.394;2023-07-16T04:00:42;5.30;;;3.00;;
25327;SDS011;13279;51.300;12.394;2023-07-16T04:03:35;4.80;;;3.57;;
25327;SDS011;13279;51.300;12.394;2023-07-16T04:06:22;4.37;;;3.33;;
25327;SDS011;13279;51.300;12.394;2023-07-16T04:09:01;3.87;;;3.53;;
25327;SDS011;13279;51.300;12.394;2023-07-16T04:11:48;4.37;;;3.97;;
25327;SDS011;13279;51.300;12.394;2023-07-16T04:14:22;4.80;;;3.50;;
25327;SDS011;13279;51.300;12.394;2023-07-16T04:16:49;7.03;;;3.67;;
25327;SDS011;13279;51.300;12.394;2023-07-16T04:19:18;9.07;;;3.70;;
25327;SDS011;13279;51.300;12.394;2023-07-16T04:21:46;9.73;;;3.77;;
25327;SDS011;13279;51.300;12.394;2023-07-16T04:24:13;4.80;;;2.90;;
25327;SDS011;13279;51.300;12.394;2023-07-16T04:26:41;4.97;;;3.17;;
25327;SDS011;13279;51.300;12.394;2023-07-16T04:29:08;5.23;;;3.70;;
25327;SDS011;13279;51.300;12.394;2023-07-16T04:31:36;5.77;;;3.20;;
25327;SDS011;13279;51.300;12.394;2023-07-16T04:34:04;5.43;;;3.33;;
25327;SDS011;13279;51.300;12.394;2023-07-16T04:36:33;8.33;;;3.30;;
25327;SDS011;13279;51.300;12.394;2023-07-16T04:39:00;6.37;;;3.53;;
25327;SDS011;13279;51.300;12.394;2023-07-16T04:41:28;3.60;;;3.30;;
25327;SDS011;13279;51.300;12.394;2023-07-16T04:43:55;4.50;;;3.17;;
25327;SDS011;13279;51.300;12.394;2023-07-16T04:46:23;6.10;;;3.60;;
25327;SDS011;13279;51.300;12.394;2023-07-16T04:48:50;11.13;;;3.23;;
25327;SDS011;13279;51.300;12.394;2023-07-16T04:51:19;3.10;;;2.77;;
25327;SDS011;13279;51.300;12.394;2023-07-16T04:53:48;5.83;;;2.93;;
25327;SDS011;13279;51.300;12.394;2023-07-16T04:56:15;10.10;;;2.97;;
25327;SDS011;13279;51.300;12.394;2023-07-16T04:58:43;6.03;;;3.07;;
25327;SDS011;13279;51.300;12.394;2023-07-16T05:01:11;5.97;;;3.00;;
25327;SDS011;13279;51.300;12.394;2023-07-16T05:03:38;5.47;;;2.60;;
25327;SDS011;13279;51.300;12.394;2023-07-16T05:06:06;5.50;;;2.70;;
25327;SDS011;13279;51.300;12.394;2023-07-16T05:08:33;3.27;;;2.37;;
25327;SDS011;13279;51.300;12.394;2023-07-16T05:11:02;4.70;;;2.17;;
25327;SDS011;13279;51.300;12.394;2023-07-16T05:13:29;5.80;;;2.67;;
25327;SDS011;13279;51.300;12.394;2023-07-16T05:15:57;5.43;;;2.20;;
25327;SDS011;13279;51.300;12.394;2023-07-16T05:18:24;2.50;;;2.30;;
25327;SDS011;13279;51.300;12.394;2023-07-16T05:20:52;4.80;;;2.23;;
25327;SDS011;13279;51.300;12.394;2023-07-16T05:23:19;6.50;;;1.70;;
25327;SDS011;13279;51.300;12.394;2023-07-16T05:25:48;3.53;;;1.80;;
25327;SDS011;13279;51.300;12.394;2023-07-16T05:28:18;7.30;;;2.13;;
25327;SDS011;13279;51.300;12.394;2023-07-16T05:30:46;5.40;;;1.90;;
25327;SDS011;13279;51.300;12.394;2023-07-16T05:33:14;2.40;;;1.87;;
25327;SDS011;13279;51.300;12.394;2023-07-16T05:35:41;2.27;;;2.00;;
25327;SDS011;13279;51.300;12.394;2023-07-16T05:38:09;7.00;;;1.73;;
25327;SDS011;13279;51.300;12.394;2023-07-16T05:40:36;1.87;;;1.60;;
25327;SDS011;13279;51.300;12.394;2023-07-16T05:43:04;1.70;;;1.60;;
25327;SDS011;13279;51.300;12.394;2023-07-16T05:45:32;2.63;;;1.63;;
25327;SDS011;13279;51.300;12.394;2023-07-16T05:48:01;2.13;;;1.40;;
25327;SDS011;13279;51.300;12.394;2023-07-16T05:50:29;2.07;;;1.70;;
25327;SDS011;13279;51.300;12.394;2023-07-16T05:52:56;1.17;;;1.07;;
25327;SDS011;13279;51.300;12.394;2023-07-16T05:55:24;1.73;;;1.63;;
25327;SDS011;13279;51.300;12.394;2023-07-16T05:57:51;3.33;;;1.50;;
25327;SDS011;13279;51.300;12.394;2023-07-16T06:00:19;5.10;;;1.67;;
25327;SDS011;13279;51.300;12.394;2023-07-16T06:02:48;2.23;;;2.03;;
25327;SDS011;13279;51.300;12.394;2023-07-16T06:05:15;1.53;;;1.43;;
25327;SDS011;13279;51.300;12.394;2023-07-16T06:07:43;2.60;;;1.77;;
25327;SDS011;13279;51.300;12.394;2023-07-16T06:10:11;1.77;;;1.67;;
25327;SDS011;13279;51.300;12.394;2023-07-16T06:12:39;4.80;;;1.70;;
25327;SDS011;13279;51.300;12.394;2023-07-16T06:15:06;2.17;;;1.47;;
25327;SDS011;13279;51.300;12.394;2023-07-16T06:17:34;2.20;;;1.47;;
25327;SDS011;13279;51.300;12.394;2023-07-16T06:20:03;3.33;;;1.80;;
25327;SDS011;13279;51.300;12.394;2023-07-16T06:22:32;5.77;;;1.47;;
25327;SDS011;13279;51.300;12.394;2023-07-16T06:25:00;2.60;;;1.50;;
25327;SDS011;13279;51.300;12.394;2023-07-16T06:27:28;3.23;;;2.10;;
25327;SDS011;13279;51.300;12.394;2023-07-16T06:29:55;3.30;;;1.50;;
25327;SDS011;13279;51.300;12.394;2023-07-16T06:32:23;3.37;;;1.77;;
25327;SDS011;13279;51.300;12.394;2023-07-16T06:34:50;3.80;;;1.67;;
25327;SDS011;13279;51.300;12.394;2023-07-16T06:37:19;2.03;;;1.83;;
25327;SDS011;13279;51.300;12.394;2023-07-16T06:39:49;2.00;;;1.70;;
25327;SDS011;13279;51.300;12.394;2023-07-16T06:42:16;1.60;;;1.50;;
25327;SDS011;13279;51.300;12.394;2023-07-16T06:44:43;2.83;;;1.50;;
25327;SDS011;13279;51.300;12.394;2023-07-16T06:47:11;3.70;;;1.47;;
25327;SDS011;13279;51.300;12.394;2023-07-16T06:49:39;3.53;;;1.70;;
25327;SDS011;13279;51.300;12.394;2023-07-16T06:52:07;3.67;;;1.80;;
25327;SDS011;13279;51.300;12.394;2023-07-16T06:54:36;2.93;;;1.53;;
25327;SDS011;13279;51.300;12.394;2023-07-16T06:57:07;4.27;;;2.00;;
25327;SDS011;13279;51.300;12.394;2023-07-16T06:59:34;2.13;;;1.50;;
25327;SDS011;13279;51.300;12.394;2023-07-16T07:02:02;4.53;;;1.67;;
25327;SDS011;13279;51.300;12.394;2023-07-16T07:04:30;2.67;;;1.60;;
25327;SDS011;13279;51.300;12.394;2023-07-16T07:06:57;4.33;;;1.87;;
25327;SDS011;13279;51.300;12.394;2023-07-16T07:09:25;1.90;;;1.47;;
25327;SDS011;13279;51.300;12.394;2023-07-16T07:11:53;7.23;;;1.90;;
25327;SDS011;13279;51.300;12.394;2023-07-16T07:14:21;5.43;;;1.70;;
25327;SDS011;13279;51.300;12.394;2023-07-16T07:16:48;3.77;;;1.70;;
25327;SDS011;13279;51.300;12.394;2023-07-16T07:19:16;2.57;;;1.70;;
25327;SDS011;13279;51.300;12.394;2023-07-16T07:21:43;3.63;;;1.80;;
25327;SDS011;13279;51.300;12.394;2023-07-16T07:24:11;4.73;;;1.77;;
25327;SDS011;13279;51.300;12.394;2023-07-16T07:26:39;9.00;;;1.60;;
25327;SDS011;13279;51.300;12.394;2023-07-16T07:29:08;16.37;;;1.70;;
25327;SDS011;13279;51.300;12.394;2023-07-16T07:31:35;3.07;;;1.70;;
25327;SDS011;13279;51.300;12.394;2023-07-16T07:34:03;3.40;;;1.43;;
25327;SDS011;13279;51.300;12.394;2023-07-16T07:36:30;3.70;;;1.87;;
25327;SDS011;13279;51.300;12.394;2023-07-16T07:38:57;3.27;;;1.47;;
25327;SDS011;13279;51.300;12.394;2023-07-16T07:41:24;6.40;;;1.60;;
25327;SDS011;13279;51.300;12.394;2023-07-16T07:43:52;3.40;;;1.63;;
25327;SDS011;13279;51.300;12.394;2023-07-16T07:46:21;4.40;;;1.90;;
25327;SDS011;13279;51.300;12.394;2023-07-16T07:48:48;2.63;;;1.40;;
25327;SDS011;13279;51.300;12.394;2023-07-16T07:51:15;2.97;;;1.67;;
25327;SDS011;13279;51.300;12.394;2023-07-16T07:53:42;3.40;;;1.53;;
25327;SDS011;13279;51.300;12.394;2023-07-16T07:56:10;3.03;;;1.33;;
25327;SDS011;13279;51.300;12.394;2023-07-16T07:58:37;3.00;;;1.43;;
25327;SDS011;13279;51.300;12.394;2023-07-16T08:01:05;3.00;;;1.77;;
25327;SDS011;13279;51.300;12.394;2023-07-16T08:03:34;5.10;;;1.70;;
25327;SDS011;13279;51.300;12.394;2023-07-16T08:06:02;2.17;;;1.47;;
25327;SDS011;13279;51.300;12.394;2023-07-16T08:08:29;6.27;;;1.50;;
25327;SDS011;13279;51.300;12.394;2023-07-16T08:10:57;4.03;;;1.70;;
25327;SDS011;13279;51.300;12.394;2023-07-16T08:13:24;2.17;;;1.50;;
25327;SDS011;13279;51.300;12.394;2023-07-16T08:15:51;3.33;;;1.80;;
25327;SDS011;13279;51.300;12.394;2023-07-16T08:18:18;4.13;;;2.00;;
25327;SDS011;13279;51.300;12.394;2023-07-16T08:20:49;3.90;;;1.40;;
25327;SDS011;13279;51.300;12.394;2023-07-16T08:23:16;2.73;;;1.57;;
25327;SDS011;13279;51.300;12.394;2023-07-16T08:25:44;6.90;;;1.93;;
25327;SDS011;13279;51.300;12.394;2023-07-16T08:28:12;3.93;;;1.83;;
25327;SDS011;13279;51.300;12.394;2023-07-16T08:30:40;3.17;;;1.93;;
25327;SDS011;13279;51.300;12.394;2023-07-16T08:33:08;4.73;;;1.33;;
25327;SDS011;13279;51.300;12.394;2023-07-16T08:35:35;3.37;;;1.60;;
25327;SDS011;13279;51.300;12.394;2023-07-16T08:38:04;4.50;;;1.50;;
25327;SDS011;13279;51.300;12.394;2023-07-16T08:40:34;4.87;;;1.57;;
25327;SDS011;13279;51.300;12.394;2023-07-16T08:43:02;4.27;;;1.70;;
25327;SDS011;13279;51.300;12.394;2023-07-16T08:45:31;6.07;;;1.73;;
25327;SDS011;13279;51.300;12.394;2023-07-16T08:48:06;6.33;;;1.50;;
25327;SDS011;13279;51.300;12.394;2023-07-16T08:50:34;4.47;;;1.67;;
25327;SDS011;13279;51.300;12.394;2023-07-16T08:53:05;2.53;;;1.30;;
25327;SDS011;13279;51.300;12.394;2023-07-16T08:55:33;3.63;;;1.73;;
25327;SDS011;13279;51.300;12.394;2023-07-16T08:58:02;3.67;;;2.00;;
25327;SDS011;13279;51.300;12.394;2023-07-16T09:00:31;6.27;;;2.10;;
25327;SDS011;13279;51.300;12.394;2023-07-16T09:03:00;3.77;;;1.43;;
25327;SDS011;13279;51.300;12.394;2023-07-16T09:05:28;4.97;;;1.70;;
25327;SDS011;13279;51.300;12.394;2023-07-16T09:07:56;5.23;;;1.43;;
25327;SDS011;13279;51.300;12.394;2023-07-16T09:10:25;7.23;;;1.57;;
25327;SDS011;13279;51.300;12.394;2023-07-16T09:12:52;7.63;;;1.53;;
25327;SDS011;13279;51.300;12.394;2023-07-16T09:15:20;3.23;;;1.50;;
25327;SDS011;13279;51.300;12.394;2023-07-16T09:17:47;5.87;;;1.50;;
25327;SDS011;13279;51.300;12.394;2023-07-16T09:20:15;5.10;;;1.33;;
25327;SDS011;13279;51.300;12.394;2023-07-16T09:22:43;4.53;;;1.83;;
25327;SDS011;13279;51.300;12.394;2023-07-16T09:25:10;2.53;;;1.53;;
25327;SDS011;13279;51.300;12.394;2023-07-16T09:27:39;2.27;;;1.53;;
25327;SDS011;13279;51.300;12.394;2023-07-16T09:30:14;5.23;;;1.43;;
25327;SDS011;13279;51.300;12.394;2023-07-16T09:32:44;5.37;;;1.47;;
25327;SDS011;13279;51.300;12.394;2023-07-16T09:35:15;2.07;;;0.93;;
25327;SDS011;13279;51.300;12.394;2023-07-16T09:37:43;3.67;;;1.40;;
25327;SDS011;13279;51.300;12.394;2023-07-16T09:40:11;2.50;;;1.50;;
25327;SDS011;13279;51.300;12.394;2023-07-16T09:42:40;3.23;;;1.50;;
25327;SDS011;13279;51.300;12.394;2023-07-16T09:45:09;3.33;;;1.73;;
25327;SDS011;13279;51.300;12.394;2023-07-16T09:47:39;3.63;;;1.70;;
25327;SDS011;13279;51.300;12.394;2023-07-16T09:50:07;5.63;;;1.90;;
25327;SDS011;13279;51.300;12.394;2023-07-16T09:52:35;4.30;;;1.50;;
25327;SDS011;13279;51.300;12.394;2023-07-16T09:55:03;1.97;;;1.43;;
25327;SDS011;13279;51.300;12.394;2023-07-16T09:57:32;3.43;;;1.50;;
25327;SDS011;13279;51.300;12.394;2023-07-16T10:00:05;3.07;;;1.50;;
25327;SDS011;13279;51.300;12.394;2023-07-16T10:02:41;3.97;;;1.83;;
25327;SDS011;13279;51.300;12.394;2023-07-16T10:05:12;3.07;;;1.43;;
25327;SDS011;13279;51.300;12.394;2023-07-16T10:07:40;4.00;;;1.30;;
25327;SDS011;13279;51.300;12.394;2023-07-16T10:10:09;3.90;;;1.67;;
25327;SDS011;13279;51.300;12.394;2023-07-16T10:12:37;4.63;;;1.80;;
25327;SDS011;13279;51.300;12.394;2023-07-16T10:15:11;4.27;;;1.27;;
25327;SDS011;13279;51.300;12.394;2023-07-16T10:17:49;5.17;;;1.33;;
25327;SDS011;13279;51.300;12.394;2023-07-16T10:20:17;3.70;;;1.30;;
25327;SDS011;13279;51.300;12.394;2023-07-16T10:22:55;2.47;;;1.30;;
25327;SDS011;13279;51.300;12.394;2023-07-16T10:25:23;4.70;;;1.93;;
25327;SDS011;13279;51.300;12.394;2023-07-16T10:27:52;2.50;;;1.50;;
25327;SDS011;13279;51.300;12.394;2023-07-16T10:30:21;4.07;;;1.70;;
25327;SDS011;13279;51.300;12.394;2023-07-16T10:32:50;2.53;;;1.30;;
25327;SDS011;13279;51.300;12.394;2023-07-16T10:35:19;7.03;;;2.40;;
25327;SDS011;13279;51.300;12.394;2023-07-16T10:37:47;7.10;;;1.63;;
25327;SDS011;13279;51.300;12.394;2023-07-16T10:40:14;1.60;;;1.43;;
25327;SDS011;13279;51.300;12.394;2023-07-16T10:42:42;2.93;;;1.57;;
25327;SDS011;13279;51.300;12.394;2023-07-16T10:45:12;3.60;;;1.93;;
25327;SDS011;13279;51.300;12.394;2023-07-16T10:47:51;4.00;;;1.67;;
25327;SDS011;13279;51.300;12.394;2023-07-16T10:50:19;3.47;;;1.70;;
25327;SDS011;13279;51.300;12.394;2023-07-16T10:52:50;3.47;;;1.57;;
25327;SDS011;13279;51.300;12.394;2023-07-16T10:55:18;4.83;;;1.50;;
25327;SDS011;13279;51.300;12.394;2023-07-16T10:57:46;4.97;;;1.67;;
25327;SDS011;13279;51.300;12.394;2023-07-16T11:00:15;2.70;;;2.20;;
25327;SDS011;13279;51.300;12.394;2023-07-16T11:02:44;2.33;;;1.70;;
25327;SDS011;13279;51.300;12.394;2023-07-16T11:05:13;5.40;;;1.63;;
25327;SDS011;13279;51.300;12.394;2023-07-16T11:07:42;6.70;;;1.87;;
25327;SDS011;13279;51.300;12.394;2023-07-16T11:10:11;5.70;;;1.33;;
25327;SDS011;13279;51.300;12.394;2023-07-16T11:12:38;4.20;;;1.67;;
25327;SDS011;13279;51.300;12.394;2023-07-16T11:15:06;6.03;;;1.70;;
25327;SDS011;13279;51.300;12.394;2023-07-16T11:17:36;5.78;;;1.48;;
25327;SDS011;13279;51.300;12.394;2023-07-16T11:20:08;6.00;;;1.77;;
25327;SDS011;13279;51.300;12.394;2023-07-16T11:22:36;4.10;;;1.77;;
25327;SDS011;13279;51.300;12.394;2023-07-16T11:25:10;4.53;;;1.43;;
25327;SDS011;13279;51.300;12.394;2023-07-16T11:27:40;3.43;;;1.60;;
25327;SDS011;13279;51.300;12.394;2023-07-16T11:30:08;3.17;;;1.63;;
25327;SDS011;13279;51.300;12.394;2023-07-16T11:32:37;4.93;;;1.70;;
25327;SDS011;13279;51.300;12.394;2023-07-16T11:35:11;3.93;;;1.87;;
25327;SDS011;13279;51.300;12.394;2023-07-16T11:37:42;2.87;;;1.80;;
25327;SDS011;13279;51.300;12.394;2023-07-16T11:40:11;3.63;;;1.70;;
25327;SDS011;13279;51.300;12.394;2023-07-16T11:42:43;2.37;;;1.50;;
25327;SDS011;13279;51.300;12.394;2023-07-16T11:45:17;5.87;;;2.10;;
25327;SDS011;13279;51.300;12.394;2023-07-16T11:47:46;5.53;;;1.77;;
25327;SDS011;13279;51.300;12.394;2023-07-16T11:50:15;3.93;;;1.83;;
25327;SDS011;13279;51.300;12.394;2023-07-16T11:52:42;3.17;;;1.55;;
25327;SDS011;13279;51.300;12.394;2023-07-16T11:55:18;6.27;;;2.20;;
25327;SDS011;13279;51.300;12.394;2023-07-16T11:57:45;5.07;;;1.80;;
25327;SDS011;13279;51.300;12.394;2023-07-16T12:00:13;2.73;;;1.57;;
25327;SDS011;13279;51.300;12.394;2023-07-16T12:02:42;3.97;;;1.70;;
25327;SDS011;13279;51.300;12.394;2023-07-16T12:05:18;4.63;;;2.00;;
25327;SDS011;13279;51.300;12.394;2023-07-16T12:07:45;6.97;;;1.48;;
25327;SDS011;13279;51.300;12.394;2023-07-16T12:10:13;9.60;;;2.47;;
25327;SDS011;13279;51.300;12.394;2023-07-16T12:12:40;2.22;;;1.55;;
25327;SDS011;13279;51.300;12.394;2023-07-16T12:15:08;9.17;;;1.90;;
25327;SDS011;13279;51.300;12.394;2023-07-16T12:17:36;4.32;;;1.95;;
25327;SDS011;13279;51.300;12.394;2023-07-16T12:20:04;7.00;;;1.80;;
25327;SDS011;13279;51.300;12.394;2023-07-16T12:22:34;5.20;;;2.38;;
25327;SDS011;13279;51.300;12.394;2023-07-16T12:25:03;5.47;;;1.73;;
25327;SDS011;13279;51.300;12.394;2023-07-16T12:27:30;1.98;;;1.50;;
25327;SDS011;13279;51.300;12.394;2023-07-16T12:29:58;2.75;;;1.55;;
25327;SDS011;13279;51.300;12.394;2023-07-16T12:32:25;4.47;;;1.83;;
25327;SDS011;13279;51.300;12.394;2023-07-16T12:34:52;2.55;;;1.70;;
25327;SDS011;13279;51.300;12.394;2023-07-16T12:37:20;4.15;;;1.50;;
25327;SDS011;13279;51.300;12.394;2023-07-16T12:39:50;3.30;;;1.85;;
25327;SDS011;13279;51.300;12.394;2023-07-16T12:42:17;4.57;;;1.90;;
25327;SDS011;13279;51.300;12.394;2023-07-16T12:44:45;3.07;;;1.70;;
25327;SDS011;13279;51.300;12.394;2023-07-16T12:47:12;6.13;;;2.03;;
25327;SDS011;13279;51.300;12.394;2023-07-16T12:49:40;3.88;;;1.95;;
25327;SDS011;13279;51.300;12.394;2023-07-16T12:52:07;3.72;;;2.08;;
25327;SDS011;13279;51.300;12.394;2023-07-16T12:54:35;2.28;;;1.80;;
25327;SDS011;13279;51.300;12.394;2023-07-16T12:57:04;4.43;;;2.20;;
25327;SDS011;13279;51.300;12.394;2023-07-16T12:59:32;3.92;;;2.00;;
25327;SDS011;13279;51.300;12.394;2023-07-16T13:01:59;4.43;;;2.47;;
25327;SDS011;13279;51.300;12.394;2023-07-16T13:04:28;3.60;;;2.28;;
25327;SDS011;13279;51.300;12.394;2023-07-16T13:06:55;7.35;;;2.67;;
25327;SDS011;13279;51.300;12.394;2023-07-16T13:09:23;4.75;;;2.63;;
25327;SDS011;13279;51.300;12.394;2023-07-16T13:11:50;6.40;;;2.28;;
25327;SDS011;13279;51.300;12.394;2023-07-16T13:14:19;6.28;;;1.92;;
25327;SDS011;13279;51.300;12.394;2023-07-16T13:16:46;6.00;;;2.30;;
25327;SDS011;13279;51.300;12.394;2023-07-16T13:19:14;5.72;;;2.00;;
25327;SDS011;13279;51.300;12.394;2023-07-16T13:21:41;4.88;;;2.70;;
25327;SDS011;13279;51.300;12.394;2023-07-16T13:24:08;2.40;;;2.20;;
25327;SDS011;13279;51.300;12.394;2023-07-16T13:26:36;5.38;;;2.20;;
25327;SDS011;13279;51.300;12.394;2023-07-16T13:29:04;6.53;;;2.42;;
25327;SDS011;13279;51.300;12.394;2023-07-16T13:31:32;4.45;;;2.25;;
25327;SDS011;13279;51.300;12.394;2023-07-16T13:34:00;4.15;;;1.88;;
25327;SDS011;13279;51.300;12.394;2023-07-16T13:36:27;3.88;;;2.47;;
25327;SDS011;13279;51.300;12.394;2023-07-16T13:38:55;10.70;;;2.17;;
25327;SDS011;13279;51.300;12.394;2023-07-16T13:41:22;3.72;;;2.08;;
25327;SDS011;13279;51.300;12.394;2023-07-16T13:43:49;3.67;;;2.40;;
25327;SDS011;13279;51.300;12.394;2023-07-16T13:46:18;5.65;;;2.30;;
25327;SDS011;13279;51.300;12.394;2023-07-16T13:48:47;5.05;;;2.20;;
25327;SDS011;13279;51.300;12.394;2023-07-16T13:51:14;8.77;;;2.67;;
25327;SDS011;13279;51.300;12.394;2023-07-16T13:53:42;9.90;;;2.60;;
25327;SDS011;13279;51.300;12.394;2023-07-16T13:56:09;6.53;;;2.30;;
25327;SDS011;13279;51.300;12.394;2023-07-16T13:58:37;3.25;;;2.22;;
25327;SDS011;13279;51.300;12.394;2023-07-16T14:01:04;5.22;;;2.15;;
25327;SDS011;13279;51.300;12.394;2023-07-16T14:03:32;3.90;;;2.17;;
25327;SDS011;13279;51.300;12.394;2023-07-16T14:06:00;5.50;;;2.58;;
25327;SDS011;13279;51.300;12.394;2023-07-16T14:08:28;3.05;;;2.20;;
25327;SDS011;13279;51.300;12.394;2023-07-16T14:10:59;4.50;;;2.22;;
25327;SDS011;13279;51.300;12.394;2023-07-16T14:13:27;6.22;;;2.22;;
25327;SDS011;13279;51.300;12.394;2023-07-16T14:15:54;5.72;;;2.22;;
25327;SDS011;13279;51.300;12.394;2023-07-16T14:18:21;3.90;;;2.33;;
25327;SDS011;13279;51.300;12.394;2023-07-16T14:20:49;2.10;;;1.90;;
25327;SDS011;13279;51.300;12.394;2023-07-16T14:23:17;5.55;;;2.22;;
25327;SDS011;13279;51.300;12.394;2023-07-16T14:25:45;5.90;;;2.60;;
25327;SDS011;13279;51.300;12.394;2023-07-16T14:28:12;5.07;;;2.30;;
25327;SDS011;13279;51.300;12.394;2023-07-16T14:30:40;6.43;;;2.60;;
25327;SDS011;13279;51.300;12.394;2023-07-16T14:33:07;7.05;;;2.10;;
25327;SDS011;13279;51.300;12.394;2023-07-16T14:35:35;4.03;;;2.47;;
25327;SDS011;13279;51.300;12.394;2023-07-16T14:38:02;4.18;;;2.35;;
25327;SDS011;13279;51.300;12.394;2023-07-16T14:40:31;6.95;;;2.50;;
25327;SDS011;13279;51.300;12.394;2023-07-16T14:42:58;3.67;;;2.53;;